sensor_id;sensor_type;location;lat;lon;timestamp;temperature;humidity
71535;DHT22;59357;51.514;7.438;2022-07-24T00:00:36;16.40;99.90
71535;DHT22;59357;51.514;7.438;2022-07-24T00:03:02;16.50;99.90
71535;DHT22;59357;51.514;7.438;2022-07-24T00:05:28;16.60;99.90
71535;DHT22;59357;51.514;7.438;2022-07-24T00:07:54;16.60;99.90
71535;DHT22;59357;51.514;7.438;2022-07-24T00:10:19;16.60;99.90
71535;DHT22;59357;51.514;7.438;2022-07-24T00:12:45;16.50;99.90
71535;DHT22;59357;51.514;7.438;2022-07-24T00:15:11;16.50;99.90
71535;DHT22;59357;51.514;7.438;2022-07-24T00:17:37;16.50;99.90
71535;DHT22;59357;51.514;7.438;2022-07-24T00:20:05;16.40;99.90
71535;DHT22;59357;51.514;7.438;2022-07-24T00:22:31;16.30;99.90
71535;DHT22;59357;51.514;7.438;2022-07-24T00:24:57;16.30;99.90
71535;DHT22;59357;51.514;7.438;2022-07-24T00:27:23;16.20;99.90
71535;DHT22;59357;51.514;7.438;2022-07-24T00:29:49;16.30;99.90
71535;DHT22;59357;51.514;7.438;2022-07-24T00:32:16;16.30;99.90
71535;DHT22;59357;51.514;7.438;2022-07-24T00:34:42;16.20;99.90
71535;DHT22;59357;51.514;7.438;2022-07-24T00:37:08;16.10;99.90
71535;DHT22;59357;51.514;7.438;2022-07-24T00:39:34;16.00;99.90
71535;DHT22;59357;51.514;7.438;2022-07-24T00:41:59;16.00;99.90
71535;DHT22;59357;51.514;7.438;2022-07-24T00:44:25;16.00;99.90
71535;DHT22;59357;51.514;7.438;2022-07-24T00:46:51;16.00;99.90
71535;DHT22;59357;51.514;7.438;2022-07-24T00:49:19;16.00;99.90
71535;DHT22;59357;51.514;7.438;2022-07-24T00:51:47;16.00;99.90
71535;DHT22;59357;51.514;7.438;2022-07-24T00:54:14;16.20;99.90
71535;DHT22;59357;51.514;7.438;2022-07-24T00:56:41;16.00;99.90
71535;DHT22;59357;51.514;7.438;2022-07-24T00:59:07;16.00;99.90
71535;DHT22;59357;51.514;7.438;2022-07-24T01:01:33;16.00;99.90
71535;DHT22;59357;51.514;7.438;2022-07-24T01:03:59;16.00;99.90
71535;DHT22;59357;51.514;7.438;2022-07-24T01:06:25;16.00;99.90
71535;DHT22;59357;51.514;7.438;2022-07-24T01:08:51;16.10;99.90
71535;DHT22;59357;51.514;7.438;2022-07-24T01:11:19;16.10;99.90
71535;DHT22;59357;51.514;7.438;2022-07-24T01:13:47;16.10;99.90
71535;DHT22;59357;51.514;7.438;2022-07-24T01:16:13;16.10;99.90
71535;DHT22;59357;51.514;7.438;2022-07-24T01:18:39;16.20;99.90
71535;DHT22;59357;51.514;7.438;2022-07-24T01:21:06;16.20;99.90
71535;DHT22;59357;51.514;7.438;2022-07-24T01:23:32;16.00;99.90
71535;DHT22;59357;51.514;7.438;2022-07-24T01:25:58;15.80;99.90
71535;DHT22;59357;51.514;7.438;2022-07-24T01:28:23;15.80;99.90
71535;DHT22;59357;51.514;7.438;2022-07-24T01:30:49;15.80;99.90
71535;DHT22;59357;51.514;7.438;2022-07-24T01:33:15;15.80;99.90
71535;DHT22;59357;51.514;7.438;2022-07-24T01:35:42;15.80;99.90
71535;DHT22;59357;51.514;7.438;2022-07-24T01:38:09;15.80;99.90
71535;DHT22;59357;51.514;7.438;2022-07-24T01:40:35;15.80;99.90
71535;DHT22;59357;51.514;7.438;2022-07-24T01:43:01;15.80;99.90
71535;DHT22;59357;51.514;7.438;2022-07-24T01:45:27;15.80;99.90
71535;DHT22;59357;51.514;7.438;2022-07-24T01:47:53;15.80;99.90
71535;DHT22;59357;51.514;7.438;2022-07-24T01:50:19;15.70;99.90
71535;DHT22;59357;51.514;7.438;2022-07-24T01:52:45;15.50;99.90
71535;DHT22;59357;51.514;7.438;2022-07-24T01:55:11;15.50;99.90
71535;DHT22;59357;51.514;7.438;2022-07-24T01:57:37;15.60;99.90
71535;DHT22;59357;51.514;7.438;2022-07-24T02:00:06;15.60;99.90
71535;DHT22;59357;51.514;7.438;2022-07-24T02:02:41;15.70;99.90
71535;DHT22;59357;51.514;7.438;2022-07-24T02:05:07;15.70;99.90
71535;DHT22;59357;51.514;7.438;2022-07-24T02:07:33;15.70;99.90
71535;DHT22;59357;51.514;7.438;2022-07-24T02:09:59;15.80;99.90
71535;DHT22;59357;51.514;7.438;2022-07-24T02:12:25;15.80;99.90
71535;DHT22;59357;51.514;7.438;2022-07-24T02:14:51;15.80;99.90
71535;DHT22;59357;51.514;7.438;2022-07-24T02:17:17;15.70;99.90
71535;DHT22;59357;51.514;7.438;2022-07-24T02:19:43;15.60;99.90
71535;DHT22;59357;51.514;7.438;2022-07-24T02:22:09;15.70;99.90
71535;DHT22;59357;51.514;7.438;2022-07-24T02:24:35;15.70;99.90
71535;DHT22;59357;51.514;7.438;2022-07-24T02:27:00;15.90;99.90
71535;DHT22;59357;51.514;7.438;2022-07-24T02:29:26;15.90;99.90
71535;DHT22;59357;51.514;7.438;2022-07-24T02:31:52;16.00;99.90
71535;DHT22;59357;51.514;7.438;2022-07-24T02:34:18;16.00;99.90
71535;DHT22;59357;51.514;7.438;2022-07-24T02:36:44;16.00;99.90
71535;DHT22;59357;51.514;7.438;2022-07-24T02:39:10;16.00;99.90
71535;DHT22;59357;51.514;7.438;2022-07-24T02:41:35;16.10;99.90
71535;DHT22;59357;51.514;7.438;2022-07-24T02:44:01;16.10;99.90
71535;DHT22;59357;51.514;7.438;2022-07-24T02:46:27;16.10;99.90
71535;DHT22;59357;51.514;7.438;2022-07-24T02:48:54;16.20;99.90
71535;DHT22;59357;51.514;7.438;2022-07-24T02:51:20;16.20;99.90
71535;DHT22;59357;51.514;7.438;2022-07-24T02:53:46;16.20;99.90
71535;DHT22;59357;51.514;7.438;2022-07-24T02:56:12;16.20;99.90
71535;DHT22;59357;51.514;7.438;2022-07-24T02:58:38;16.30;99.90
71535;DHT22;59357;51.514;7.438;2022-07-24T03:01:03;16.20;99.90
71535;DHT22;59357;51.514;7.438;2022-07-24T03:03:29;16.20;99.90
71535;DHT22;59357;51.514;7.438;2022-07-24T03:05:55;16.20;99.90
71535;DHT22;59357;51.514;7.438;2022-07-24T03:08:21;16.20;99.90
71535;DHT22;59357;51.514;7.438;2022-07-24T03:10:47;16.30;99.90
71535;DHT22;59357;51.514;7.438;2022-07-24T03:13:14;16.30;99.90
71535;DHT22;59357;51.514;7.438;2022-07-24T03:15:42;16.30;99.90
71535;DHT22;59357;51.514;7.438;2022-07-24T03:18:08;16.40;99.90
71535;DHT22;59357;51.514;7.438;2022-07-24T03:20:34;16.30;99.90
71535;DHT22;59357;51.514;7.438;2022-07-24T03:23:00;16.40;99.90
71535;DHT22;59357;51.514;7.438;2022-07-24T03:25:25;16.40;99.90
71535;DHT22;59357;51.514;7.438;2022-07-24T03:27:51;16.40;99.90
71535;DHT22;59357;51.514;7.438;2022-07-24T03:30:19;16.40;99.90
71535;DHT22;59357;51.514;7.438;2022-07-24T03:32:45;16.30;99.90
71535;DHT22;59357;51.514;7.438;2022-07-24T03:35:11;16.30;99.90
71535;DHT22;59357;51.514;7.438;2022-07-24T03:37:37;16.30;99.90
71535;DHT22;59357;51.514;7.438;2022-07-24T03:40:04;16.30;99.90
71535;DHT22;59357;51.514;7.438;2022-07-24T03:42:30;16.30;99.90
71535;DHT22;59357;51.514;7.438;2022-07-24T03:44:56;16.40;99.90
71535;DHT22;59357;51.514;7.438;2022-07-24T03:47:22;16.50;99.90
71535;DHT22;59357;51.514;7.438;2022-07-24T03:49:47;16.40;99.90
71535;DHT22;59357;51.514;7.438;2022-07-24T03:52:13;16.30;99.90
71535;DHT22;59357;51.514;7.438;2022-07-24T03:54:39;16.30;99.90
71535;DHT22;59357;51.514;7.438;2022-07-24T03:57:05;16.30;99.90
71535;DHT22;59357;51.514;7.438;2022-07-24T03:59:32;16.40;99.90
71535;DHT22;59357;51.514;7.438;2022-07-24T04:01:58;16.50;99.90
71535;DHT22;59357;51.514;7.438;2022-07-24T04:04:24;16.50;99.90
71535;DHT22;59357;51.514;7.438;2022-07-24T04:06:50;16.60;99.90
71535;DHT22;59357;51.514;7.438;2022-07-24T04:09:15;16.70;99.90
71535;DHT22;59357;51.514;7.438;2022-07-24T04:11:41;16.80;99.90
71535;DHT22;59357;51.514;7.438;2022-07-24T04:14:10;16.90;99.90
71535;DHT22;59357;51.514;7.438;2022-07-24T04:16:35;17.00;99.90
71535;DHT22;59357;51.514;7.438;2022-07-24T04:19:02;17.00;99.90
71535;DHT22;59357;51.514;7.438;2022-07-24T04:21:27;17.10;99.90
71535;DHT22;59357;51.514;7.438;2022-07-24T04:23:53;17.10;99.90
71535;DHT22;59357;51.514;7.438;2022-07-24T04:26:19;17.10;99.90
71535;DHT22;59357;51.514;7.438;2022-07-24T04:28:45;17.00;99.90
71535;DHT22;59357;51.514;7.438;2022-07-24T04:31:11;17.10;99.90
71535;DHT22;59357;51.514;7.438;2022-07-24T04:33:37;17.10;99.90
71535;DHT22;59357;51.514;7.438;2022-07-24T04:36:04;17.20;99.90
71535;DHT22;59357;51.514;7.438;2022-07-24T04:38:32;17.30;99.90
71535;DHT22;59357;51.514;7.438;2022-07-24T04:40:58;17.40;99.90
71535;DHT22;59357;51.514;7.438;2022-07-24T04:43:24;17.40;99.90
71535;DHT22;59357;51.514;7.438;2022-07-24T04:45:50;17.50;99.90
71535;DHT22;59357;51.514;7.438;2022-07-24T04:48:16;17.60;99.90
71535;DHT22;59357;51.514;7.438;2022-07-24T04:50:42;17.70;99.90
71535;DHT22;59357;51.514;7.438;2022-07-24T04:53:08;17.80;99.90
71535;DHT22;59357;51.514;7.438;2022-07-24T04:55:33;17.90;99.90
71535;DHT22;59357;51.514;7.438;2022-07-24T04:57:59;18.00;99.90
71535;DHT22;59357;51.514;7.438;2022-07-24T05:00:25;18.20;99.90
71535;DHT22;59357;51.514;7.438;2022-07-24T05:02:51;18.40;99.90
71535;DHT22;59357;51.514;7.438;2022-07-24T05:05:17;18.60;99.90
71535;DHT22;59357;51.514;7.438;2022-07-24T05:07:42;18.70;99.90
71535;DHT22;59357;51.514;7.438;2022-07-24T05:10:08;18.90;99.90
71535;DHT22;59357;51.514;7.438;2022-07-24T05:12:35;19.20;99.90
71535;DHT22;59357;51.514;7.438;2022-07-24T05:15:03;19.50;99.90
71535;DHT22;59357;51.514;7.438;2022-07-24T05:17:29;20.50;99.90
71535;DHT22;59357;51.514;7.438;2022-07-24T05:19:55;21.80;98.60
71535;DHT22;59357;51.514;7.438;2022-07-24T05:22:21;23.00;91.10
71535;DHT22;59357;51.514;7.438;2022-07-24T05:24:47;24.00;82.40
71535;DHT22;59357;51.514;7.438;2022-07-24T05:27:13;24.60;73.70
71535;DHT22;59357;51.514;7.438;2022-07-24T05:29:39;25.30;70.20
71535;DHT22;59357;51.514;7.438;2022-07-24T05:32:05;26.40;65.90
71535;DHT22;59357;51.514;7.438;2022-07-24T05:34:31;27.10;61.80
71535;DHT22;59357;51.514;7.438;2022-07-24T05:36:57;27.20;59.10
71535;DHT22;59357;51.514;7.438;2022-07-24T05:39:23;27.20;58.50
71535;DHT22;59357;51.514;7.438;2022-07-24T05:41:49;27.00;58.90
71535;DHT22;59357;51.514;7.438;2022-07-24T05:44:14;28.00;56.70
71535;DHT22;59357;51.514;7.438;2022-07-24T05:46:40;28.80;54.60
71535;DHT22;59357;51.514;7.438;2022-07-24T05:49:06;29.70;52.40
71535;DHT22;59357;51.514;7.438;2022-07-24T05:51:32;30.00;50.70
71535;DHT22;59357;51.514;7.438;2022-07-24T05:53:58;29.60;50.80
71535;DHT22;59357;51.514;7.438;2022-07-24T05:56:23;30.10;49.80
71535;DHT22;59357;51.514;7.438;2022-07-24T05:58:49;30.60;49.30
71535;DHT22;59357;51.514;7.438;2022-07-24T06:01:15;31.30;47.30
71535;DHT22;59357;51.514;7.438;2022-07-24T06:03:41;32.60;44.40
71535;DHT22;59357;51.514;7.438;2022-07-24T06:06:10;32.50;44.30
71535;DHT22;59357;51.514;7.438;2022-07-24T06:08:36;33.80;42.40
71535;DHT22;59357;51.514;7.438;2022-07-24T06:11:03;33.30;41.80
71535;DHT22;59357;51.514;7.438;2022-07-24T06:13:33;33.60;40.30
71535;DHT22;59357;51.514;7.438;2022-07-24T06:15:59;34.90;40.00
71535;DHT22;59357;51.514;7.438;2022-07-24T06:18:25;36.10;36.80
71535;DHT22;59357;51.514;7.438;2022-07-24T06:20:51;35.20;37.80
71535;DHT22;59357;51.514;7.438;2022-07-24T06:23:16;35.60;37.20
71535;DHT22;59357;51.514;7.438;2022-07-24T06:25:42;36.20;35.40
71535;DHT22;59357;51.514;7.438;2022-07-24T06:28:08;36.00;35.50
71535;DHT22;59357;51.514;7.438;2022-07-24T06:30:34;35.80;35.60
71535;DHT22;59357;51.514;7.438;2022-07-24T06:33:00;35.90;35.20
71535;DHT22;59357;51.514;7.438;2022-07-24T06:35:27;36.00;35.80
71535;DHT22;59357;51.514;7.438;2022-07-24T06:37:53;37.10;34.90
71535;DHT22;59357;51.514;7.438;2022-07-24T06:40:21;39.00;32.00
71535;DHT22;59357;51.514;7.438;2022-07-24T06:42:48;39.30;31.10
71535;DHT22;59357;51.514;7.438;2022-07-24T06:45:14;38.50;31.60
71535;DHT22;59357;51.514;7.438;2022-07-24T06:47:41;37.40;32.90
71535;DHT22;59357;51.514;7.438;2022-07-24T06:50:08;37.90;32.10
71535;DHT22;59357;51.514;7.438;2022-07-24T06:52:34;37.00;32.90
71535;DHT22;59357;51.514;7.438;2022-07-24T06:55:00;38.40;31.10
71535;DHT22;59357;51.514;7.438;2022-07-24T06:57:26;37.90;31.50
71535;DHT22;59357;51.514;7.438;2022-07-24T06:59:53;37.50;32.10
71535;DHT22;59357;51.514;7.438;2022-07-24T07:02:22;37.70;32.20
71535;DHT22;59357;51.514;7.438;2022-07-24T07:04:49;38.10;31.50
71535;DHT22;59357;51.514;7.438;2022-07-24T07:07:15;38.00;31.90
71535;DHT22;59357;51.514;7.438;2022-07-24T07:09:44;38.00;31.70
71535;DHT22;59357;51.514;7.438;2022-07-24T07:12:10;38.30;31.10
71535;DHT22;59357;51.514;7.438;2022-07-24T07:14:36;38.80;31.30
71535;DHT22;59357;51.514;7.438;2022-07-24T07:17:02;38.50;30.80
71535;DHT22;59357;51.514;7.438;2022-07-24T07:19:28;38.50;31.20
71535;DHT22;59357;51.514;7.438;2022-07-24T07:21:54;39.70;30.00
71535;DHT22;59357;51.514;7.438;2022-07-24T07:24:20;40.60;29.20
71535;DHT22;59357;51.514;7.438;2022-07-24T07:26:47;40.20;29.80
71535;DHT22;59357;51.514;7.438;2022-07-24T07:29:13;40.60;29.20
71535;DHT22;59357;51.514;7.438;2022-07-24T07:31:38;40.90;28.50
71535;DHT22;59357;51.514;7.438;2022-07-24T07:34:04;41.50;28.40
71535;DHT22;59357;51.514;7.438;2022-07-24T07:36:30;42.30;28.30
71535;DHT22;59357;51.514;7.438;2022-07-24T07:38:56;41.40;28.00
71535;DHT22;59357;51.514;7.438;2022-07-24T07:41:26;41.10;28.60
71535;DHT22;59357;51.514;7.438;2022-07-24T07:43:52;39.70;29.80
71535;DHT22;59357;51.514;7.438;2022-07-24T07:46:18;39.90;29.40
71535;DHT22;59357;51.514;7.438;2022-07-24T07:48:44;40.50;29.10
71535;DHT22;59357;51.514;7.438;2022-07-24T07:51:10;40.90;29.00
71535;DHT22;59357;51.514;7.438;2022-07-24T07:53:36;40.80;29.40
71535;DHT22;59357;51.514;7.438;2022-07-24T07:56:02;40.30;29.20
71535;DHT22;59357;51.514;7.438;2022-07-24T07:58:29;40.50;28.80
71535;DHT22;59357;51.514;7.438;2022-07-24T08:00:55;40.60;28.90
71535;DHT22;59357;51.514;7.438;2022-07-24T08:03:21;40.60;28.80
71535;DHT22;59357;51.514;7.438;2022-07-24T08:05:47;41.00;28.50
71535;DHT22;59357;51.514;7.438;2022-07-24T08:08:13;40.90;28.30
71535;DHT22;59357;51.514;7.438;2022-07-24T08:10:38;40.80;28.70
71535;DHT22;59357;51.514;7.438;2022-07-24T08:13:04;42.40;27.80
71535;DHT22;59357;51.514;7.438;2022-07-24T08:15:30;42.50;27.30
71535;DHT22;59357;51.514;7.438;2022-07-24T08:17:57;42.10;27.30
71535;DHT22;59357;51.514;7.438;2022-07-24T08:20:25;42.40;27.20
71535;DHT22;59357;51.514;7.438;2022-07-24T08:22:51;42.20;27.20
71535;DHT22;59357;51.514;7.438;2022-07-24T08:25:18;42.40;26.80
71535;DHT22;59357;51.514;7.438;2022-07-24T08:27:43;42.00;27.10
71535;DHT22;59357;51.514;7.438;2022-07-24T08:30:10;41.70;27.70
71535;DHT22;59357;51.514;7.438;2022-07-24T08:32:36;41.90;27.70
71535;DHT22;59357;51.514;7.438;2022-07-24T08:35:04;42.70;27.10
71535;DHT22;59357;51.514;7.438;2022-07-24T08:37:30;43.90;25.90
71535;DHT22;59357;51.514;7.438;2022-07-24T08:39:56;43.10;26.40
71535;DHT22;59357;51.514;7.438;2022-07-24T08:42:22;43.10;26.30
71535;DHT22;59357;51.514;7.438;2022-07-24T08:44:48;42.90;26.80
71535;DHT22;59357;51.514;7.438;2022-07-24T08:47:15;44.70;25.50
71535;DHT22;59357;51.514;7.438;2022-07-24T08:49:42;43.50;26.80
71535;DHT22;59357;51.514;7.438;2022-07-24T08:52:10;42.30;26.80
71535;DHT22;59357;51.514;7.438;2022-07-24T08:54:37;42.50;26.70
71535;DHT22;59357;51.514;7.438;2022-07-24T08:57:03;42.10;27.30
71535;DHT22;59357;51.514;7.438;2022-07-24T08:59:29;41.80;27.00
71535;DHT22;59357;51.514;7.438;2022-07-24T09:01:55;40.60;28.10
71535;DHT22;59357;51.514;7.438;2022-07-24T09:04:36;41.00;28.00
71535;DHT22;59357;51.514;7.438;2022-07-24T09:07:09;42.80;26.80
71535;DHT22;59357;51.514;7.438;2022-07-24T09:09:36;42.00;26.60
71535;DHT22;59357;51.514;7.438;2022-07-24T09:12:04;41.50;27.40
71535;DHT22;59357;51.514;7.438;2022-07-24T09:14:31;41.70;27.60
71535;DHT22;59357;51.514;7.438;2022-07-24T09:17:09;41.60;27.40
71535;DHT22;59357;51.514;7.438;2022-07-24T09:19:55;42.20;27.10
71535;DHT22;59357;51.514;7.438;2022-07-24T09:22:34;42.50;27.00
71535;DHT22;59357;51.514;7.438;2022-07-24T09:30:42;43.20;26.10
71535;DHT22;59357;51.514;7.438;2022-07-24T09:35:39;43.10;25.70
71535;DHT22;59357;51.514;7.438;2022-07-24T09:38:10;43.40;25.80
71535;DHT22;59357;51.514;7.438;2022-07-24T09:40:39;42.50;26.80
71535;DHT22;59357;51.514;7.438;2022-07-24T09:46:00;43.80;25.90
71535;DHT22;59357;51.514;7.438;2022-07-24T09:48:28;44.50;26.20
71535;DHT22;59357;51.514;7.438;2022-07-24T09:50:59;43.80;25.20
71535;DHT22;59357;51.514;7.438;2022-07-24T09:53:28;42.60;26.20
71535;DHT22;59357;51.514;7.438;2022-07-24T09:56:02;42.50;26.10
71535;DHT22;59357;51.514;7.438;2022-07-24T09:58:30;43.40;26.10
71535;DHT22;59357;51.514;7.438;2022-07-24T10:00:58;43.40;26.00
71535;DHT22;59357;51.514;7.438;2022-07-24T10:03:28;42.60;26.80
71535;DHT22;59357;51.514;7.438;2022-07-24T10:06:00;44.60;24.80
71535;DHT22;59357;51.514;7.438;2022-07-24T10:08:27;44.30;25.60
71535;DHT22;59357;51.514;7.438;2022-07-24T10:10:53;45.50;24.90
71535;DHT22;59357;51.514;7.438;2022-07-24T10:13:20;45.20;24.30
71535;DHT22;59357;51.514;7.438;2022-07-24T10:21:08;45.90;24.00
71535;DHT22;59357;51.514;7.438;2022-07-24T10:29:14;46.20;23.70
71535;DHT22;59357;51.514;7.438;2022-07-24T10:37:09;43.80;25.10
71535;DHT22;59357;51.514;7.438;2022-07-24T10:42:12;42.50;26.20
71535;DHT22;59357;51.514;7.438;2022-07-24T10:44:37;42.30;26.50
71535;DHT22;59357;51.514;7.438;2022-07-24T10:47:07;42.30;26.60
71535;DHT22;59357;51.514;7.438;2022-07-24T10:49:34;41.70;27.00
71535;DHT22;59357;51.514;7.438;2022-07-24T10:52:30;42.60;26.20
71535;DHT22;59357;51.514;7.438;2022-07-24T10:56:26;41.30;27.30
71535;DHT22;59357;51.514;7.438;2022-07-24T10:58:57;39.60;28.70
71535;DHT22;59357;51.514;7.438;2022-07-24T11:01:48;38.70;30.30
71535;DHT22;59357;51.514;7.438;2022-07-24T11:06:58;33.80;34.50
71535;DHT22;59357;51.514;7.438;2022-07-24T11:09:26;33.00;37.00
71535;DHT22;59357;51.514;7.438;2022-07-24T11:12:03;31.70;38.40
71535;DHT22;59357;51.514;7.438;2022-07-24T11:14:49;31.10;40.30
71535;DHT22;59357;51.514;7.438;2022-07-24T11:17:42;31.20;39.80
71535;DHT22;59357;51.514;7.438;2022-07-24T11:28:30;30.70;41.30
71535;DHT22;59357;51.514;7.438;2022-07-24T11:30:59;30.40;42.50
71535;DHT22;59357;51.514;7.438;2022-07-24T11:33:25;30.50;41.40
71535;DHT22;59357;51.514;7.438;2022-07-24T11:35:57;30.30;42.80
71535;DHT22;59357;51.514;7.438;2022-07-24T11:38:28;30.40;41.80
71535;DHT22;59357;51.514;7.438;2022-07-24T11:41:12;30.20;41.60
71535;DHT22;59357;51.514;7.438;2022-07-24T11:43:50;30.30;42.70
71535;DHT22;59357;51.514;7.438;2022-07-24T11:46:33;30.40;41.60
71535;DHT22;59357;51.514;7.438;2022-07-24T11:49:03;30.20;41.20
71535;DHT22;59357;51.514;7.438;2022-07-24T11:51:29;30.20;41.50
71535;DHT22;59357;51.514;7.438;2022-07-24T11:53:56;30.10;42.10
71535;DHT22;59357;51.514;7.438;2022-07-24T11:56:22;29.80;43.10
71535;DHT22;59357;51.514;7.438;2022-07-24T11:58:48;29.60;43.30
71535;DHT22;59357;51.514;7.438;2022-07-24T12:01:21;29.70;42.40
71535;DHT22;59357;51.514;7.438;2022-07-24T12:03:50;29.40;43.20
71535;DHT22;59357;51.514;7.438;2022-07-24T12:06:16;29.10;43.20
71535;DHT22;59357;51.514;7.438;2022-07-24T12:08:43;29.00;43.30
71535;DHT22;59357;51.514;7.438;2022-07-24T12:11:09;29.10;43.30
71535;DHT22;59357;51.514;7.438;2022-07-24T12:13:41;29.10;43.40
71535;DHT22;59357;51.514;7.438;2022-07-24T12:16:07;28.90;43.00
71535;DHT22;59357;51.514;7.438;2022-07-24T12:19:20;28.90;43.40
71535;DHT22;59357;51.514;7.438;2022-07-24T12:22:02;29.30;42.40
71535;DHT22;59357;51.514;7.438;2022-07-24T12:24:30;29.10;43.10
71535;DHT22;59357;51.514;7.438;2022-07-24T12:26:58;28.90;43.80
71535;DHT22;59357;51.514;7.438;2022-07-24T12:29:41;28.90;42.80
71535;DHT22;59357;51.514;7.438;2022-07-24T12:34:45;28.70;44.10
71535;DHT22;59357;51.514;7.438;2022-07-24T21:55:57;21.60;99.90
71535;DHT22;59357;51.514;7.438;2022-07-24T21:58:23;21.60;99.90
71535;DHT22;59357;51.514;7.438;2022-07-24T22:00:49;21.50;99.90
71535;DHT22;59357;51.514;7.438;2022-07-24T22:06:55;21.40;99.90
71535;DHT22;59357;51.514;7.438;2022-07-24T22:09:21;21.20;99.90
71535;DHT22;59357;51.514;7.438;2022-07-24T22:11:49;21.20;99.90
71535;DHT22;59357;51.514;7.438;2022-07-24T22:14:15;21.10;99.90
71535;DHT22;59357;51.514;7.438;2022-07-24T22:16:41;21.00;99.90
71535;DHT22;59357;51.514;7.438;2022-07-24T22:23:34;20.90;99.90
71535;DHT22;59357;51.514;7.438;2022-07-24T22:30:21;20.80;99.90
71535;DHT22;59357;51.514;7.438;2022-07-24T22:32:47;21.00;99.90
71535;DHT22;59357;51.514;7.438;2022-07-24T22:35:13;21.10;99.90
71535;DHT22;59357;51.514;7.438;2022-07-24T22:37:40;21.20;99.90
71535;DHT22;59357;51.514;7.438;2022-07-24T22:40:08;21.30;99.90
71535;DHT22;59357;51.514;7.438;2022-07-24T22:42:34;21.30;99.90
71535;DHT22;59357;51.514;7.438;2022-07-24T22:45:01;21.20;99.90
71535;DHT22;59357;51.514;7.438;2022-07-24T22:47:27;21.20;99.90
71535;DHT22;59357;51.514;7.438;2022-07-24T22:49:53;21.40;99.90
71535;DHT22;59357;51.514;7.438;2022-07-24T22:52:19;21.50;99.90
71535;DHT22;59357;51.514;7.438;2022-07-24T22:59:14;21.60;99.90
71535;DHT22;59357;51.514;7.438;2022-07-24T23:01:40;21.70;99.90
71535;DHT22;59357;51.514;7.438;2022-07-24T23:04:06;21.70;99.90
71535;DHT22;59357;51.514;7.438;2022-07-24T23:06:32;21.70;99.90
71535;DHT22;59357;51.514;7.438;2022-07-24T23:08:58;21.80;99.90
71535;DHT22;59357;51.514;7.438;2022-07-24T23:11:24;21.80;99.90
71535;DHT22;59357;51.514;7.438;2022-07-24T23:13:52;21.80;99.90
71535;DHT22;59357;51.514;7.438;2022-07-24T23:16:18;22.00;99.90
71535;DHT22;59357;51.514;7.438;2022-07-24T23:18:44;22.10;99.30
71535;DHT22;59357;51.514;7.438;2022-07-24T23:21:11;22.10;98.00
71535;DHT22;59357;51.514;7.438;2022-07-24T23:23:37;22.30;96.50
71535;DHT22;59357;51.514;7.438;2022-07-24T23:26:03;22.40;95.00
71535;DHT22;59357;51.514;7.438;2022-07-24T23:28:29;22.50;94.40
71535;DHT22;59357;51.514;7.438;2022-07-24T23:30:56;22.60;92.50
71535;DHT22;59357;51.514;7.438;2022-07-24T23:33:30;22.60;92.10
71535;DHT22;59357;51.514;7.438;2022-07-24T23:35:56;22.60;90.60
71535;DHT22;59357;51.514;7.438;2022-07-24T23:38:21;22.80;91.30
71535;DHT22;59357;51.514;7.438;2022-07-24T23:40:47;22.80;88.90
71535;DHT22;59357;51.514;7.438;2022-07-24T23:43:13;22.90;87.20
71535;DHT22;59357;51.514;7.438;2022-07-24T23:45:39;22.90;86.00
71535;DHT22;59357;51.514;7.438;2022-07-24T23:48:05;22.90;84.60
71535;DHT22;59357;51.514;7.438;2022-07-24T23:50:31;22.90;83.50
71535;DHT22;59357;51.514;7.438;2022-07-24T23:52:57;22.80;84.30
71535;DHT22;59357;51.514;7.438;2022-07-24T23:55:23;22.70;84.50
71535;DHT22;59357;51.514;7.438;2022-07-24T23:57:48;22.50;86.30
